Ernest Campbell — WDB3005 — position and weather

sailwx.info

Track history (hours):
 
Tides and Currents Weather Stations Pressure Air Temp Water Temp Dewpoint Dewpoint Depression Visibility Wind Speed Wind Dir Waves Ship Positions

Ernest Campbell

More information available from US FCC via Universal Licensing System and Coast Guard Vessel Documentation Center.

Last reported at 2014-Aug-31 08:32 UTC. Time now 2014-Aug-31 08:37 UTC.
Position N 47°34' W 122°21'.

Length 33 m; draft 4.6 m.

Type: Tow > 200 m length. MMSI: 366882320.

Date/timePositionNaut miles runAvg speedWind from/ knotsBaromVisibWave heightAir tempDewpointWater temp
2014-Aug-31 08:32N 47°34' W 122°21'0 0.0
2014-Aug-31 07:32N 47°34' W 122°21'0 0.0
2014-Aug-31 06:32N 47°34' W 122°21'0 0.0
2014-Aug-31 05:29N 47°34' W 122°21'0 0.0
2014-Aug-31 04:32N 47°34' W 122°21'0 0.0
2014-Aug-31 03:32N 47°34' W 122°21'0 0.0
2014-Aug-31 02:32N 47°34' W 122°21'0 0.0
2014-Aug-31 01:23N 47°34' W 122°21'0 0.0
2014-Aug-31 00:31N 47°34' W 122°21'0 0.0
2014-Aug-30 23:31N 47°34' W 122°21'0 0.0
2014-Aug-30 22:31N 47°34' W 122°21'0 0.0
2014-Aug-30 21:10N 47°34' W 122°21'0 0.0
2014-Aug-30 20:31N 47°34' W 122°21'0 0.0
2014-Aug-30 19:28N 47°34' W 122°21'0 0.0
2014-Aug-30 18:31N 47°34' W 122°21'0 0.0
2014-Aug-30 17:31N 47°34' W 122°21'0 0.0
2014-Aug-30 15:28N 47°34' W 122°21'0 0.0
2014-Aug-30 14:31N 47°34' W 122°21'0 0.0
2014-Aug-30 13:31N 47°34' W 122°21'0 0.0
2014-Aug-30 12:25N 47°34' W 122°21'0 0.0
2014-Aug-30 11:31N 47°34' W 122°21'0 0.0
2014-Aug-30 10:31N 47°34' W 122°21'0 0.0
2014-Aug-30 09:31N 47°34' W 122°21'0 0.0
2014-Aug-30 08:31N 47°34' W 122°21'0 0.0
2014-Aug-30 07:31N 47°34' W 122°21'0 0.0
2014-Aug-30 06:31N 47°34' W 122°21'0 0.0
2014-Aug-30 05:31N 47°34' W 122°21'0 0.0
2014-Aug-30 04:28N 47°34' W 122°21'0 0.0
2014-Aug-30 03:19N 47°34' W 122°21'0 0.0
2014-Aug-30 02:10N 47°34' W 122°21'0 0.0
2014-Aug-30 01:25N 47°34' W 122°21'0 0.0
2014-Aug-30 00:31N 47°34' W 122°21'0 0.0
2014-Aug-29 23:28N 47°34' W 122°21'0 0.0
2014-Aug-29 22:31N 47°34' W 122°21'0 0.0
2014-Aug-29 21:31N 47°34' W 122°21'0 0.0
2014-Aug-29 20:31N 47°34' W 122°21'0 0.0
2014-Aug-29 19:31N 47°34' W 122°21'0 0.0
2014-Aug-29 18:31N 47°34' W 122°21'0 0.0
2014-Aug-29 17:31N 47°34' W 122°21'2 1.8
2014-Aug-29 16:33N 47°36' W 122°22'2 1.3
2014-Aug-29 15:16N 47°34' W 122°21'0 0.4
2014-Aug-29 14:33N 47°35' W 122°21'3 3.0
2014-Aug-29 13:33N 47°37' W 122°23'3 3.3
2014-Aug-29 12:33N 47°34' W 122°21'0 0.0
2014-Aug-29 11:30N 47°34' W 122°21'0 0.0
2014-Aug-29 10:33N 47°34' W 122°21'0 0.0
2014-Aug-29 09:33N 47°34' W 122°21'0 0.0
2014-Aug-29 08:33N 47°34' W 122°21'0 0.0
2014-Aug-29 07:33N 47°34' W 122°21'0 0.0
2014-Aug-29 06:33N 47°34' W 122°21'0 0.0
2014-Aug-29 05:33N 47°34' W 122°21'0 0.0
2014-Aug-29 04:33N 47°34' W 122°21'0 0.0
2014-Aug-29 03:33N 47°34' W 122°21'0 0.5
2014-Aug-29 02:33N 47°35' W 122°21'4 4.1
2014-Aug-29 01:33N 47°38' W 122°25'7 6.6
2014-Aug-29 00:33N 47°44' W 122°27'7 7.4
2014-Aug-28 23:33N 47°51' W 122°29'8 7.5
2014-Aug-28 22:33N 47°58' W 122°35'8 7.4
2014-Aug-28 21:30N 48°05' W 122°40'8 7.8
2014-Aug-28 20:32N 48°10' W 122°48'7 7.0
2014-Aug-28 19:33N 48°11' W 122°58'6 6.4
2014-Aug-28 18:33N 48°12' W 123°07'6 5.8
2014-Aug-28 17:33N 48°12' W 123°16'5 5.5
2014-Aug-28 16:33N 48°12' W 123°24'6 5.9
2014-Aug-28 15:33N 48°12' W 123°33'5 4.6
2014-Aug-28 14:33N 48°12' W 123°40'6 6.2
2014-Aug-28 13:33N 48°12' W 123°50'7 7.0
2014-Aug-28 12:33N 48°14' W 123°60'8 7.8
2014-Aug-28 11:33N 48°17' W 124°10'7 7.4
2014-Aug-28 10:33N 48°20' W 124°20'7 7.0
2014-Aug-28 09:33N 48°23' W 124°30'7 6.6
2014-Aug-28 08:33N 48°26' W 124°39'7 6.5
2014-Aug-28 07:33N 48°27' W 124°49'7 6.3
2014-Aug-28 06:31N 48°24' W 124°58'  
2014-Aug-23 03:14N 37°02' W 123°12'13 6.6
2014-Aug-23 01:17N 36°51' W 123°04'7 6.5
2014-Aug-23 00:17N 36°45' W 123°00'11 6.3
2014-Aug-22 22:33N 36°37' W 122°51'153 6.6
2014-Aug-21 23:25N 34°35' W 120°60'42 6.6
2014-Aug-21 17:09N 34°18' W 120°14'5 7.3
2014-Aug-21 16:31N 34°17' W 120°08'7 7.1
2014-Aug-21 15:33N 34°15' W 120°00'7 6.9
2014-Aug-21 14:33N 34°13' W 119°52'7 6.7
2014-Aug-21 13:33N 34°11' W 119°44'7 6.6
2014-Aug-21 12:33N 34°09' W 119°37'7 7.0
2014-Aug-21 11:33N 34°08' W 119°28'7 7.0
2014-Aug-21 10:30N 34°06' W 119°20'  
Track history (hours):
 
Tides and Currents Weather Stations Pressure Air Temp Water Temp Dewpoint Dewpoint Depression Visibility Wind Speed Wind Dir Waves Ship Positions

Ernest Campbell

More information available from US FCC via Universal Licensing System and Coast Guard Vessel Documentation Center.

Last reported at 2014-Aug-31 08:32 UTC. Time now 2014-Aug-31 08:37 UTC.
Position N 47°34' W 122°21'.

Length 33 m; draft 4.6 m.

Type: Tow > 200 m length. MMSI: 366882320.

Date/timePositionNaut miles runAvg speedWind from/ knotsBaromVisibWave heightAir tempDewpointWater temp
2014-Aug-31 08:32N 47°34' W 122°21'0 0.0
2014-Aug-31 07:32N 47°34' W 122°21'0 0.0
2014-Aug-31 06:32N 47°34' W 122°21'0 0.0
2014-Aug-31 05:29N 47°34' W 122°21'0 0.0
2014-Aug-31 04:32N 47°34' W 122°21'0 0.0
2014-Aug-31 03:32N 47°34' W 122°21'0 0.0
2014-Aug-31 02:32N 47°34' W 122°21'0 0.0
2014-Aug-31 01:23N 47°34' W 122°21'0 0.0
2014-Aug-31 00:31N 47°34' W 122°21'0 0.0
2014-Aug-30 23:31N 47°34' W 122°21'0 0.0
2014-Aug-30 22:31N 47°34' W 122°21'0 0.0
2014-Aug-30 21:10N 47°34' W 122°21'0 0.0
2014-Aug-30 20:31N 47°34' W 122°21'0 0.0
2014-Aug-30 19:28N 47°34' W 122°21'0 0.0
2014-Aug-30 18:31N 47°34' W 122°21'0 0.0
2014-Aug-30 17:31N 47°34' W 122°21'0 0.0
2014-Aug-30 15:28N 47°34' W 122°21'0 0.0
2014-Aug-30 14:31N 47°34' W 122°21'0 0.0
2014-Aug-30 13:31N 47°34' W 122°21'0 0.0
2014-Aug-30 12:25N 47°34' W 122°21'0 0.0
2014-Aug-30 11:31N 47°34' W 122°21'0 0.0
2014-Aug-30 10:31N 47°34' W 122°21'0 0.0
2014-Aug-30 09:31N 47°34' W 122°21'0 0.0
2014-Aug-30 08:31N 47°34' W 122°21'0 0.0
2014-Aug-30 07:31N 47°34' W 122°21'0 0.0
2014-Aug-30 06:31N 47°34' W 122°21'0 0.0
2014-Aug-30 05:31N 47°34' W 122°21'0 0.0
2014-Aug-30 04:28N 47°34' W 122°21'0 0.0
2014-Aug-30 03:19N 47°34' W 122°21'0 0.0
2014-Aug-30 02:10N 47°34' W 122°21'0 0.0
2014-Aug-30 01:25N 47°34' W 122°21'0 0.0
2014-Aug-30 00:31N 47°34' W 122°21'0 0.0
2014-Aug-29 23:28N 47°34' W 122°21'0 0.0
2014-Aug-29 22:31N 47°34' W 122°21'0 0.0
2014-Aug-29 21:31N 47°34' W 122°21'0 0.0
2014-Aug-29 20:31N 47°34' W 122°21'0 0.0
2014-Aug-29 19:31N 47°34' W 122°21'0 0.0
2014-Aug-29 18:31N 47°34' W 122°21'0 0.0
2014-Aug-29 17:31N 47°34' W 122°21'2 1.8
2014-Aug-29 16:33N 47°36' W 122°22'2 1.3
2014-Aug-29 15:16N 47°34' W 122°21'0 0.4
2014-Aug-29 14:33N 47°35' W 122°21'3 3.0
2014-Aug-29 13:33N 47°37' W 122°23'3 3.3
2014-Aug-29 12:33N 47°34' W 122°21'0 0.0
2014-Aug-29 11:30N 47°34' W 122°21'0 0.0
2014-Aug-29 10:33N 47°34' W 122°21'0 0.0
2014-Aug-29 09:33N 47°34' W 122°21'0 0.0
2014-Aug-29 08:33N 47°34' W 122°21'0 0.0
2014-Aug-29 07:33N 47°34' W 122°21'0 0.0
2014-Aug-29 06:33N 47°34' W 122°21'0 0.0
2014-Aug-29 05:33N 47°34' W 122°21'0 0.0
2014-Aug-29 04:33N 47°34' W 122°21'0 0.0
2014-Aug-29 03:33N 47°34' W 122°21'0 0.5
2014-Aug-29 02:33N 47°35' W 122°21'4 4.1
2014-Aug-29 01:33N 47°38' W 122°25'7 6.6
2014-Aug-29 00:33N 47°44' W 122°27'7 7.4
2014-Aug-28 23:33N 47°51' W 122°29'8 7.5
2014-Aug-28 22:33N 47°58' W 122°35'8 7.4
2014-Aug-28 21:30N 48°05' W 122°40'8 7.8
2014-Aug-28 20:32N 48°10' W 122°48'7 7.0
2014-Aug-28 19:33N 48°11' W 122°58'6 6.4
2014-Aug-28 18:33N 48°12' W 123°07'6 5.8
2014-Aug-28 17:33N 48°12' W 123°16'5 5.5
2014-Aug-28 16:33N 48°12' W 123°24'6 5.9
2014-Aug-28 15:33N 48°12' W 123°33'5 4.6
2014-Aug-28 14:33N 48°12' W 123°40'6 6.2
2014-Aug-28 13:33N 48°12' W 123°50'7 7.0
2014-Aug-28 12:33N 48°14' W 123°60'8 7.8
2014-Aug-28 11:33N 48°17' W 124°10'7 7.4
2014-Aug-28 10:33N 48°20' W 124°20'7 7.0
2014-Aug-28 09:33N 48°23' W 124°30'7 6.6
2014-Aug-28 08:33N 48°26' W 124°39'7 6.5
2014-Aug-28 07:33N 48°27' W 124°49'7 6.3
2014-Aug-28 06:31N 48°24' W 124°58'  
2014-Aug-23 03:14N 37°02' W 123°12'13 6.6
2014-Aug-23 01:17N 36°51' W 123°04'7 6.5
2014-Aug-23 00:17N 36°45' W 123°00'11 6.3
2014-Aug-22 22:33N 36°37' W 122°51'153 6.6
2014-Aug-21 23:25N 34°35' W 120°60'42 6.6
2014-Aug-21 17:09N 34°18' W 120°14'5 7.3
2014-Aug-21 16:31N 34°17' W 120°08'7 7.1
2014-Aug-21 15:33N 34°15' W 120°00'7 6.9
2014-Aug-21 14:33N 34°13' W 119°52'7 6.7
2014-Aug-21 13:33N 34°11' W 119°44'7 6.6
2014-Aug-21 12:33N 34°09' W 119°37'7 7.0
2014-Aug-21 11:33N 34°08' W 119°28'7 7.0
2014-Aug-21 10:30N 34°06' W 119°20'  

Dump ship's entire track history